createdAt,value
2023-05-22T00:00:54.863Z,100869.55
2023-05-22T00:03:29.402Z,100868.17
2023-05-22T00:06:01.546Z,100868.55
2023-05-22T00:08:33.227Z,100864.18
2023-05-22T00:11:05.050Z,100866.57
2023-05-22T00:13:37.047Z,100864.53
2023-05-22T00:16:09.773Z,100862.90
2023-05-22T00:18:42.267Z,100861.38
2023-05-22T00:21:14.024Z,100861.46
2023-05-22T00:23:45.710Z,100856.84
2023-05-22T00:26:18.991Z,100860.61
2023-05-22T00:28:50.720Z,100859.31
2023-05-22T00:31:22.514Z,100861.67
2023-05-22T00:33:54.222Z,100857.80
2023-05-22T00:36:26.165Z,100857.80
2023-05-22T00:38:58.100Z,100854.14
2023-05-22T00:41:30.220Z,100856.83
2023-05-22T00:44:02.678Z,100848.39
2023-05-22T00:46:35.499Z,100851.63
2023-05-22T00:49:07.288Z,100853.58
2023-05-22T00:51:39.233Z,100850.79
2023-05-22T00:54:13.653Z,100847.66
2023-05-22T00:56:46.391Z,100853.02
2023-05-22T00:59:18.574Z,100849.03
2023-05-22T01:01:51.200Z,100850.51
2023-05-22T01:04:23.150Z,100848.79
2023-05-22T01:06:56.212Z,100844.05
2023-05-22T01:09:28.401Z,100846.14
2023-05-22T01:12:10.234Z,100843.81
2023-05-22T01:14:54.919Z,100842.37
2023-05-22T01:17:34.816Z,100843.19
2023-05-22T01:20:20.119Z,100847.20
2023-05-22T01:23:12.173Z,100847.95
2023-05-22T01:26:12.623Z,100844.89
2023-05-22T01:28:57.109Z,100843.59
2023-05-22T01:31:31.401Z,100840.95
2023-05-22T01:34:06.655Z,100844.36
2023-05-22T01:36:40.590Z,100842.08
2023-05-22T01:39:12.940Z,100841.19
2023-05-22T01:41:45.991Z,100843.23
2023-05-22T01:44:17.724Z,100844.98
2023-05-22T01:46:49.391Z,100843.53
2023-05-22T01:49:21.125Z,100841.48
2023-05-22T01:51:58.702Z,100838.54
2023-05-22T01:54:39.163Z,100840.89
2023-05-22T01:57:19.616Z,100843.17
2023-05-22T01:59:55.477Z,100842.60
2023-05-22T02:02:29.443Z,100842.44
2023-05-22T02:05:04.737Z,100842.85
2023-05-22T02:07:40.352Z,100836.80
2023-05-22T02:10:14.320Z,100835.98
2023-05-22T02:12:46.813Z,100832.11
2023-05-22T02:15:18.917Z,100828.61
2023-05-22T02:17:53.077Z,100827.45
2023-05-22T02:20:25.089Z,100832.55
2023-05-22T02:22:56.771Z,100826.73
2023-05-22T02:25:28.762Z,100827.79
2023-05-22T02:28:00.709Z,100821.70
2023-05-22T02:30:32.894Z,100826.95
2023-05-22T02:33:06.012Z,100826.47
2023-05-22T02:35:38.211Z,100830.39
2023-05-22T02:38:10.001Z,100831.38
2023-05-22T02:40:42.257Z,100834.50
2023-05-22T02:43:14.168Z,100833.60
2023-05-22T02:45:46.500Z,100833.73
2023-05-22T02:48:18.487Z,100832.64
2023-05-22T02:50:50.184Z,100830.50
2023-05-22T02:53:21.931Z,100829.33
2023-05-22T02:55:53.817Z,100827.74
2023-05-22T02:58:26.084Z,100824.92
2023-05-22T03:00:58.647Z,100826.59
2023-05-22T03:03:31.407Z,100822.94
2023-05-22T03:06:04.256Z,100817.39
2023-05-22T03:08:41.677Z,100816.69
2023-05-22T03:11:13.417Z,100817.30
2023-05-22T03:13:45.398Z,100816.02
2023-05-22T03:16:17.142Z,100818.89
2023-05-22T03:18:51.574Z,100822.08
2023-05-22T03:21:23.308Z,100823.46
2023-05-22T03:23:55.372Z,100815.08
2023-05-22T03:26:28.207Z,100812.48
2023-05-22T03:29:00.754Z,100812.54
2023-05-22T03:31:33.957Z,100812.11
2023-05-22T03:34:24.564Z,100817.73
2023-05-22T03:36:57.889Z,100815.02
2023-05-22T03:39:30.036Z,100820.84
2023-05-22T03:42:09.509Z,100823.67
2023-05-22T03:44:41.259Z,100825.66
2023-05-22T03:47:13.684Z,100826.25
2023-05-22T03:49:45.384Z,100828.42
2023-05-22T03:52:17.041Z,100829.92
2023-05-22T03:54:48.684Z,100827.88
2023-05-22T03:57:20.747Z,100825.11
2023-05-22T03:59:52.867Z,100825.58
2023-05-22T04:02:26.377Z,100823.47
2023-05-22T04:04:58.773Z,100826.77
2023-05-22T04:07:30.517Z,100823.04
2023-05-22T04:10:04.651Z,100819.17
2023-05-22T04:12:36.791Z,100818.38
2023-05-22T04:15:10.368Z,100814.38
2023-05-22T04:17:43.313Z,100812.02
2023-05-22T04:20:16.144Z,100812.93
2023-05-22T04:22:48.851Z,100810.14
2023-05-22T04:25:20.573Z,100811.66
2023-05-22T04:27:52.294Z,100814.82
2023-05-22T04:30:25.620Z,100813.75
2023-05-22T04:32:57.634Z,100808.42
2023-05-22T04:35:30.565Z,100807.36
2023-05-22T04:38:03.581Z,100807.84
2023-05-22T04:40:37.968Z,100805.86
2023-05-22T04:43:11.646Z,100806.38
2023-05-22T04:45:43.582Z,100806.21
2023-05-22T04:48:15.340Z,100804.11
2023-05-22T04:50:47.316Z,100811.59
2023-05-22T04:53:19.181Z,100812.30
2023-05-22T04:55:50.973Z,100810.69
2023-05-22T04:58:23.349Z,100809.77
2023-05-22T05:00:57.787Z,100807.92
2023-05-22T05:03:30.101Z,100801.64
2023-05-22T05:06:03.502Z,100802.14
2023-05-22T05:08:35.543Z,100804.16
2023-05-22T05:11:07.364Z,100806.27
2023-05-22T05:13:39.225Z,100806.93
2023-05-22T05:16:11.214Z,100803.75
2023-05-22T05:18:43.744Z,100804.79
2023-05-22T05:21:16.340Z,100807.07
2023-05-22T05:23:48.577Z,100803.73
2023-05-22T05:26:21.697Z,100808.69
2023-05-22T05:28:53.645Z,100807.79
2023-05-22T05:31:28.876Z,100810.84
2023-05-22T05:34:23.724Z,100808.46
2023-05-22T05:37:04.414Z,100813.40
2023-05-22T05:39:39.625Z,100814.89
2023-05-22T05:42:13.034Z,100811.65
2023-05-22T05:44:45.093Z,100817.93
2023-05-22T05:47:17.452Z,100823.18
2023-05-22T05:49:49.202Z,100816.63
2023-05-22T05:52:21.151Z,100817.20
2023-05-22T05:54:53.564Z,100818.29
2023-05-22T05:57:26.476Z,100820.66
2023-05-22T06:00:00.403Z,100818.19
2023-05-22T06:02:50.329Z,100820.73
2023-05-22T06:05:48.473Z,100807.23
2023-05-22T06:08:32.340Z,100812.61
2023-05-22T06:11:03.498Z,100808.20
2023-05-22T06:13:42.196Z,100809.66
2023-05-22T06:16:13.935Z,100804.41
2023-05-22T06:18:46.638Z,100802.52
2023-05-22T06:21:17.774Z,100802.16
2023-05-22T06:23:49.898Z,100802.77
2023-05-22T06:26:21.896Z,100796.55
2023-05-22T06:28:54.405Z,100803.30
2023-05-22T06:31:28.093Z,100802.36
2023-05-22T06:34:01.188Z,100805.33
2023-05-22T06:36:34.774Z,100809.41
2023-05-22T06:39:07.313Z,100807.73
2023-05-22T06:42:02.099Z,100808.73
2023-05-22T06:44:52.553Z,100808.04
2023-05-22T06:47:24.978Z,100803.67
2023-05-22T06:49:56.893Z,100804.66
2023-05-22T06:52:28.621Z,100804.10
2023-05-22T06:55:04.575Z,100804.09
2023-05-22T06:57:37.460Z,100804.60
2023-05-22T07:00:12.824Z,100801.77
2023-05-22T07:03:01.998Z,100801.83
2023-05-22T07:05:38.126Z,100801.83
2023-05-22T07:08:09.378Z,100796.15
2023-05-22T07:10:41.255Z,100797.95
2023-05-22T07:13:13.285Z,100798.96
2023-05-22T07:15:46.612Z,100801.16
2023-05-22T07:18:19.171Z,100804.27
2023-05-22T07:20:51.162Z,100806.73
2023-05-22T07:23:26.223Z,100803.52
2023-05-22T07:25:59.623Z,100806.15
2023-05-22T07:28:35.172Z,100805.52
2023-05-22T07:31:12.194Z,100806.01
2023-05-22T07:33:44.321Z,100803.64
2023-05-22T07:36:17.450Z,100806.25
2023-05-22T07:38:47.818Z,100808.69
2023-05-22T07:41:19.852Z,100808.77
2023-05-22T07:43:51.651Z,100805.23
2023-05-22T07:46:26.711Z,100806.16
2023-05-22T07:49:05.182Z,100803.77
2023-05-22T07:51:37.367Z,100806.06
2023-05-22T07:54:10.143Z,100805.60
2023-05-22T07:56:45.636Z,100803.80
2023-05-22T07:59:19.709Z,100801.27
2023-05-22T08:01:51.453Z,100798.89
2023-05-22T08:04:23.399Z,100801.46
2023-05-22T08:06:55.113Z,100789.42
2023-05-22T08:09:27.037Z,100795.40
2023-05-22T08:11:58.835Z,100795.96
2023-05-22T08:14:31.417Z,100797.84
2023-05-22T08:17:03.648Z,100793.69
2023-05-22T08:19:35.501Z,100794.98
2023-05-22T08:22:07.572Z,100789.52
2023-05-22T08:24:39.811Z,100792.04
2023-05-22T08:27:11.645Z,100787.25
2023-05-22T08:29:43.341Z,100792.85
2023-05-22T08:32:15.071Z,100788.55
2023-05-22T08:34:47.849Z,100785.55
2023-05-22T08:37:19.636Z,100789.18
2023-05-22T08:39:51.382Z,100786.95
2023-05-22T08:42:23.133Z,100786.30
2023-05-22T08:44:57.419Z,100788.09
2023-05-22T08:47:29.360Z,100785.50
2023-05-22T08:50:02.712Z,100780.55
2023-05-22T08:52:38.393Z,100790.23
2023-05-22T08:55:11.924Z,100781.98
2023-05-22T08:57:45.630Z,100782.39
2023-05-22T09:00:20.002Z,100786.05
2023-05-22T09:02:53.313Z,100784.17
2023-05-22T09:05:26.747Z,100781.20
2023-05-22T09:08:08.484Z,100770.59
2023-05-22T09:10:48.569Z,100770.91
2023-05-22T09:13:28.613Z,100774.56
2023-05-22T09:16:09.777Z,100770.30
2023-05-22T09:18:42.645Z,100763.39
2023-05-22T09:21:28.865Z,100756.20
2023-05-22T09:24:04.015Z,100747.27
2023-05-22T09:26:35.840Z,100759.00
2023-05-22T09:29:08.008Z,100757.58
2023-05-22T09:31:45.486Z,100756.16
2023-05-22T09:34:18.254Z,100753.37
2023-05-22T09:36:51.630Z,100749.12
2023-05-22T09:39:24.092Z,100747.14
2023-05-22T09:42:02.823Z,100748.23
2023-05-22T09:44:34.649Z,100747.36
2023-05-22T09:47:07.149Z,100744.58
2023-05-22T09:49:44.699Z,100745.50
2023-05-22T09:52:18.941Z,100746.08
2023-05-22T09:54:55.340Z,100743.23
2023-05-22T09:57:28.975Z,100746.45
2023-05-22T10:00:02.028Z,100744.91
2023-05-22T10:02:43.260Z,100741.42
2023-05-22T10:05:21.548Z,100740.49
2023-05-22T10:07:57.525Z,100738.91
2023-05-22T10:10:29.342Z,100734.90
2023-05-22T10:13:04.861Z,100729.27
2023-05-22T10:15:37.469Z,100721.79
2023-05-22T10:18:10.394Z,100721.73
2023-05-22T10:20:41.444Z,100725.35
2023-05-22T10:23:15.264Z,100721.55
2023-05-22T10:25:47.156Z,100722.25
2023-05-22T10:28:27.304Z,100716.63
2023-05-22T10:31:05.856Z,100715.38
2023-05-22T10:34:08.486Z,100712.02
2023-05-22T10:36:52.274Z,100713.16
2023-05-22T10:39:42.516Z,100709.96
2023-05-22T10:42:17.778Z,100704.00
2023-05-22T10:44:51.393Z,100702.05
2023-05-22T10:47:23.203Z,100697.02
2023-05-22T10:50:07.979Z,100697.36
2023-05-22T10:52:40.622Z,100692.54
2023-05-22T10:55:13.752Z,100688.88
2023-05-22T10:57:46.141Z,100687.69
2023-05-22T11:00:21.297Z,100683.16
2023-05-22T11:03:17.925Z,100680.16
2023-05-22T11:05:56.166Z,100670.80
2023-05-22T11:08:41.007Z,100676.10
2023-05-22T11:11:16.639Z,100673.48
2023-05-22T11:13:54.261Z,100676.05
2023-05-22T11:16:26.132Z,100675.56
2023-05-22T11:19:21.811Z,100676.68
2023-05-22T11:22:01.428Z,100681.81
2023-05-22T11:24:38.513Z,100680.52
2023-05-22T11:27:10.701Z,100681.68
2023-05-22T11:29:44.667Z,100674.81
2023-05-22T11:32:20.826Z,100674.89
2023-05-22T11:34:54.711Z,100670.05
2023-05-22T11:37:26.709Z,100672.08
2023-05-22T11:40:05.930Z,100669.39
2023-05-22T11:42:38.463Z,100665.36
2023-05-22T11:45:12.355Z,100662.48
2023-05-22T11:47:44.723Z,100658.55
2023-05-22T11:50:20.285Z,100655.66
2023-05-22T11:52:59.445Z,100656.88
2023-05-22T11:55:31.446Z,100659.97
2023-05-22T11:58:03.618Z,100659.77
2023-05-22T12:00:35.751Z,100652.59
2023-05-22T12:03:08.667Z,100648.05
2023-05-22T12:05:40.994Z,100648.05
2023-05-22T12:08:12.945Z,100642.94
2023-05-22T12:10:50.837Z,100637.20
2023-05-22T12:13:27.889Z,100632.33
2023-05-22T12:16:01.256Z,100637.25
2023-05-22T12:18:47.184Z,100634.16
2023-05-22T12:21:21.304Z,100633.02
2023-05-22T12:23:53.643Z,100633.48
2023-05-22T12:26:25.465Z,100630.77
2023-05-22T12:28:58.536Z,100629.04
2023-05-22T12:31:35.872Z,100629.71
2023-05-22T12:34:09.544Z,100623.88
2023-05-22T12:36:43.283Z,100616.23
2023-05-22T12:39:20.041Z,100616.06
2023-05-22T12:41:51.810Z,100614.08
2023-05-22T12:44:23.604Z,100610.46
2023-05-22T12:46:55.353Z,100608.56
2023-05-22T12:49:27.873Z,100605.36
2023-05-22T12:51:59.566Z,100599.93
2023-05-22T12:54:40.094Z,100598.05
2023-05-22T12:57:12.038Z,100597.58
2023-05-22T12:59:43.821Z,100594.55
2023-05-22T13:02:16.147Z,100589.14
2023-05-22T13:04:47.901Z,100596.73
2023-05-22T13:07:26.314Z,100595.54
2023-05-22T13:09:57.999Z,100587.45
2023-05-22T13:12:30.964Z,100582.63
2023-05-22T13:15:02.981Z,100577.65
2023-05-22T13:17:34.834Z,100578.02
2023-05-22T13:20:07.921Z,100578.16
2023-05-22T13:22:39.680Z,100575.83
2023-05-22T13:25:13.386Z,100576.59
2023-05-22T13:27:45.234Z,100576.91
2023-05-22T13:30:17.254Z,100571.10
2023-05-22T13:32:49.182Z,100567.56
2023-05-22T13:35:21.509Z,100571.30
2023-05-22T13:37:53.282Z,100566.71
2023-05-22T13:40:25.347Z,100565.27
2023-05-22T13:42:57.138Z,100568.98
2023-05-22T13:45:28.764Z,100561.32
2023-05-22T13:48:00.903Z,100563.95
2023-05-22T13:50:31.302Z,100566.94
2023-05-22T13:53:03.034Z,100564.20
2023-05-22T13:55:34.725Z,100559.08
2023-05-22T13:58:06.638Z,100558.81
2023-05-22T14:00:38.344Z,100560.16
2023-05-22T14:03:11.611Z,100560.23
2023-05-22T14:05:45.067Z,100555.13
2023-05-22T14:08:16.927Z,100554.48
2023-05-22T14:10:48.851Z,100550.14
2023-05-22T14:13:23.090Z,100551.94
2023-05-22T14:15:54.836Z,100553.09
2023-05-22T14:18:27.027Z,100544.91
2023-05-22T14:20:58.804Z,100539.20
2023-05-22T14:23:30.498Z,100545.28
2023-05-22T14:26:02.484Z,100541.36
2023-05-22T14:28:34.244Z,100530.31
2023-05-22T14:31:06.114Z,100531.81
2023-05-22T14:33:37.834Z,100532.60
2023-05-22T14:36:10.082Z,100529.30
2023-05-22T14:38:41.794Z,100522.61
2023-05-22T14:41:13.627Z,100520.76
2023-05-22T14:43:45.380Z,100523.16
2023-05-22T14:46:17.175Z,100526.48
2023-05-22T14:48:48.921Z,100520.39
2023-05-22T14:51:23.038Z,100522.77
2023-05-22T14:53:55.072Z,100523.73
2023-05-22T14:56:27.583Z,100519.36
2023-05-22T14:59:00.035Z,100523.61
2023-05-22T15:01:31.930Z,100519.71
2023-05-22T15:04:03.909Z,100513.27
2023-05-22T15:06:35.593Z,100513.30
2023-05-22T15:09:07.926Z,100507.56
2023-05-22T15:11:41.402Z,100503.70
2023-05-22T15:14:13.577Z,100503.69
2023-05-22T15:16:45.873Z,100504.97
2023-05-22T15:19:22.949Z,100504.54
2023-05-22T15:22:08.812Z,100506.64
2023-05-22T15:25:06.401Z,100503.55
2023-05-22T15:27:39.845Z,100501.46
2023-05-22T15:30:17.011Z,100503.71
2023-05-22T15:32:48.841Z,100498.65
2023-05-22T15:35:20.946Z,100494.55
2023-05-22T15:37:55.877Z,100495.68
2023-05-22T15:40:27.806Z,100482.01
2023-05-22T15:43:01.769Z,100482.01
2023-05-22T15:45:33.987Z,100482.66
2023-05-22T15:48:04.827Z,100479.40
2023-05-22T15:50:36.884Z,100474.13
2023-05-22T15:53:08.551Z,100475.66
2023-05-22T15:55:40.474Z,100473.48
2023-05-22T15:58:12.474Z,100468.35
2023-05-22T16:00:44.272Z,100469.59
2023-05-22T16:03:16.944Z,100470.23
2023-05-22T16:05:49.273Z,100460.20
2023-05-22T16:08:21.284Z,100452.54
2023-05-22T16:10:53.732Z,100451.22
2023-05-22T16:13:25.828Z,100449.52
2023-05-22T16:15:56.492Z,100446.64
2023-05-22T16:18:28.200Z,100444.45
2023-05-22T16:21:00.237Z,100441.81
2023-05-22T16:23:32.035Z,100441.27
2023-05-22T16:26:03.781Z,100442.35
2023-05-22T16:28:35.439Z,100446.26
2023-05-22T16:31:07.689Z,100443.78
2023-05-22T16:33:39.635Z,100446.51
2023-05-22T16:36:12.175Z,100445.95
2023-05-22T16:38:44.474Z,100439.64
2023-05-22T16:41:16.213Z,100438.44
2023-05-22T16:43:48.073Z,100440.30
2023-05-22T16:46:20.950Z,100435.86
2023-05-22T16:48:52.676Z,100438.27
2023-05-22T16:51:24.531Z,100438.26
2023-05-22T16:53:56.227Z,100433.03
2023-05-22T16:56:28.388Z,100433.45
2023-05-22T16:58:58.717Z,100437.43
2023-05-22T17:01:31.578Z,100431.30
2023-05-22T17:04:03.469Z,100429.24
2023-05-22T17:06:35.562Z,100431.35
2023-05-22T17:09:08.128Z,100432.65
2023-05-22T17:11:40.606Z,100432.09
2023-05-22T17:14:13.085Z,100429.67
2023-05-22T17:16:45.040Z,100426.55
2023-05-22T17:19:15.673Z,100423.38
2023-05-22T17:21:47.426Z,100423.31
2023-05-22T17:24:19.286Z,100421.32
2023-05-22T17:26:51.021Z,100425.83
2023-05-22T17:29:22.760Z,100427.21
2023-05-22T17:31:54.531Z,100424.75
2023-05-22T17:34:26.267Z,100418.48
2023-05-22T17:36:59.315Z,100416.21
2023-05-22T17:39:31.299Z,100417.84
2023-05-22T17:42:02.994Z,100417.72
2023-05-22T17:44:35.054Z,100418.46
2023-05-22T17:47:07.920Z,100415.98
2023-05-22T17:49:40.828Z,100419.13
2023-05-22T17:52:13.466Z,100418.55
2023-05-22T17:54:45.667Z,100421.84
2023-05-22T17:57:17.399Z,100419.93
2023-05-22T17:59:49.150Z,100420.28
2023-05-22T18:02:20.918Z,100417.95
2023-05-22T18:04:52.901Z,100419.73
2023-05-22T18:07:24.655Z,100420.87
2023-05-22T18:09:56.949Z,100423.77
2023-05-22T18:12:32.137Z,100421.72
2023-05-22T18:15:05.317Z,100424.45
2023-05-22T18:17:37.156Z,100424.43
2023-05-22T18:20:11.953Z,100425.07
2023-05-22T18:22:44.151Z,100420.89
2023-05-22T18:25:14.875Z,100421.17
2023-05-22T18:27:48.022Z,100417.77
2023-05-22T18:30:20.596Z,100413.98
2023-05-22T18:32:52.572Z,100416.02
2023-05-22T18:35:25.043Z,100414.66
2023-05-22T18:38:00.145Z,100411.52
2023-05-22T18:40:32.445Z,100408.15
2023-05-22T18:43:04.148Z,100410.52
2023-05-22T18:45:37.477Z,100409.60
2023-05-22T18:48:09.481Z,100412.92
2023-05-22T18:50:41.608Z,100416.50
2023-05-22T18:53:13.633Z,100415.50
2023-05-22T18:55:46.285Z,100416.15
2023-05-22T18:58:16.740Z,100416.67
2023-05-22T19:00:48.471Z,100420.38
2023-05-22T19:03:20.267Z,100421.73
2023-05-22T19:05:52.277Z,100422.59
2023-05-22T19:08:25.352Z,100425.92
2023-05-22T19:10:59.774Z,100427.23
2023-05-22T19:13:31.698Z,100428.21
2023-05-22T19:16:03.982Z,100428.48
2023-05-22T19:18:36.403Z,100431.80
2023-05-22T19:21:06.685Z,100428.97
2023-05-22T19:23:38.822Z,100430.30
2023-05-22T19:26:13.144Z,100422.06
2023-05-22T19:28:48.075Z,100421.13
2023-05-22T19:31:22.948Z,100419.36
2023-05-22T19:33:55.981Z,100420.23
2023-05-22T19:36:28.441Z,100418.16
2023-05-22T19:39:02.201Z,100421.50
2023-05-22T19:41:34.950Z,100418.27
2023-05-22T19:44:08.072Z,100418.95
2023-05-22T19:46:41.864Z,100419.23
2023-05-22T19:49:17.832Z,100418.91
2023-05-22T19:51:56.013Z,100417.60
2023-05-22T19:54:31.490Z,100418.62
2023-05-22T19:57:06.372Z,100419.51
2023-05-22T19:59:45.161Z,100418.30
2023-05-22T20:02:24.018Z,100418.08
2023-05-22T20:04:58.326Z,100419.13
2023-05-22T20:07:32.984Z,100420.52
2023-05-22T20:10:08.607Z,100418.86
2023-05-22T20:12:42.670Z,100415.59
2023-05-22T20:15:21.269Z,100415.92
2023-05-22T20:17:59.582Z,100420.67
2023-05-22T20:20:38.517Z,100419.25
2023-05-22T20:23:14.800Z,100416.85
2023-05-22T20:25:49.403Z,100417.40
2023-05-22T20:28:22.208Z,100416.83
2023-05-22T20:30:53.488Z,100412.23
2023-05-22T20:33:30.642Z,100411.48
2023-05-22T20:36:13.007Z,100405.98
2023-05-22T20:38:56.262Z,100409.64
2023-05-22T20:41:33.552Z,100408.16
2023-05-22T20:44:10.196Z,100396.75
2023-05-22T20:46:43.434Z,100403.70
2023-05-22T20:49:17.930Z,100408.25
2023-05-22T20:51:52.023Z,100405.48
2023-05-22T20:54:24.658Z,100405.61
2023-05-22T20:56:57.193Z,100409.22
2023-05-22T20:59:29.738Z,100408.87
2023-05-22T21:02:05.381Z,100407.48
2023-05-22T21:04:47.716Z,100401.15
2023-05-22T21:07:26.458Z,100410.66
2023-05-22T21:10:01.545Z,100411.90
2023-05-22T21:12:35.938Z,100408.56
2023-05-22T21:15:12.753Z,100406.22
2023-05-22T21:17:49.544Z,100402.09
2023-05-22T21:20:27.260Z,100403.59
2023-05-22T21:23:15.741Z,100403.62
2023-05-22T21:26:03.158Z,100404.90
2023-05-22T21:28:46.786Z,100406.95
2023-05-22T21:31:24.533Z,100403.54
2023-05-22T21:33:58.513Z,100401.33
2023-05-22T21:36:33.799Z,100397.70
2023-05-22T21:39:14.985Z,100397.87
2023-05-22T21:41:54.886Z,100403.23
2023-05-22T21:44:27.493Z,100399.39
2023-05-22T21:47:00.405Z,100396.83
2023-05-22T21:49:36.219Z,100394.08
2023-05-22T21:52:10.493Z,100394.23
2023-05-22T21:54:42.301Z,100394.89
2023-05-22T21:57:13.941Z,100393.41
2023-05-22T21:59:47.302Z,100393.44
2023-05-22T22:02:19.564Z,100395.35
2023-05-22T22:04:51.608Z,100396.12
2023-05-22T22:07:23.295Z,100394.43
2023-05-22T22:09:55.459Z,100397.53
2023-05-22T22:12:27.319Z,100390.73
2023-05-22T22:14:59.195Z,100390.06
2023-05-22T22:17:30.909Z,100393.13
2023-05-22T22:20:02.733Z,100390.16
2023-05-22T22:22:37.359Z,100385.38
2023-05-22T22:25:10.741Z,100380.77
2023-05-22T22:27:42.418Z,100380.32
2023-05-22T22:30:14.532Z,100382.04
2023-05-22T22:32:48.175Z,100377.95
2023-05-22T22:35:21.597Z,100376.57
2023-05-22T22:37:51.866Z,100374.54
2023-05-22T22:40:25.343Z,100372.27
2023-05-22T22:42:58.450Z,100372.17
2023-05-22T22:45:30.187Z,100369.30
2023-05-22T22:48:01.994Z,100369.36
2023-05-22T22:50:33.938Z,100369.71
2023-05-22T22:53:06.241Z,100369.42
2023-05-22T22:55:38.144Z,100371.40
2023-05-22T22:58:10.715Z,100367.45
2023-05-22T23:00:42.378Z,100370.05
2023-05-22T23:03:14.015Z,100366.36
2023-05-22T23:05:46.283Z,100366.68
2023-05-22T23:08:17.974Z,100374.73
2023-05-22T23:10:49.702Z,100367.47
2023-05-22T23:13:21.320Z,100367.27
2023-05-22T23:15:53.778Z,100367.78
2023-05-22T23:18:25.587Z,100369.69
2023-05-22T23:20:57.293Z,100363.20
2023-05-22T23:23:29.026Z,100357.96
2023-05-22T23:26:00.655Z,100358.21
2023-05-22T23:28:32.648Z,100355.43
2023-05-22T23:31:04.616Z,100355.39
2023-05-22T23:33:36.244Z,100348.78
2023-05-22T23:36:08.326Z,100349.39
2023-05-22T23:38:39.946Z,100346.54
2023-05-22T23:41:11.736Z,100341.94
2023-05-22T23:43:43.418Z,100338.02
2023-05-22T23:46:15.355Z,100333.31
2023-05-22T23:48:46.984Z,100332.67
2023-05-22T23:51:19.000Z,100332.54
2023-05-22T23:53:51.246Z,100328.36
2023-05-22T23:56:23.146Z,100326.55
2023-05-22T23:58:54.845Z,100328.98
